Time,TemperatureF,DewpointF,PressureIn,WindDirection,WindDirectionDegrees,WindSpeedMPH,WindSpeedGustMPH,Humidity,HourlyPrecipIn,Conditions,Clouds,dailyrainin,SoftwareType,DateUTC
2013-04-17 00:03:00,44.1,33.8,29.95,NW,323,3.0,4.0,67,0.00,,,0.00,Wunderground v.1.15,2013-04-16 11:03:00,
2013-04-17 00:13:00,44.1,33.8,29.95,NW,312,3.0,3.0,67,0.00,,,0.00,Wunderground v.1.15,2013-04-16 11:13:00,
2013-04-17 00:18:00,44.0,33.7,29.95,North,349,4.0,4.0,67,0.00,,,0.00,Wunderground v.1.15,2013-04-16 11:18:00,
2013-04-17 00:28:00,43.9,33.6,29.95,NW,312,3.0,3.0,67,0.00,,,0.00,Wunderground v.1.15,2013-04-16 11:28:00,
2013-04-17 00:38:00,43.8,33.6,29.95,NNW,334,3.0,8.0,67,0.00,,,0.00,Wunderground v.1.15,2013-04-16 11:38:00,
2013-04-17 00:48:00,43.7,33.5,29.96,North,5,4.0,8.0,67,0.00,,,0.00,Wunderground v.1.15,2013-04-16 11:48:00,
2013-04-17 00:53:00,43.7,33.5,29.96,NNE,25,4.0,8.0,67,0.00,,,0.00,Wunderground v.1.15,2013-04-16 11:53:00,
2013-04-17 00:58:00,43.7,33.1,29.96,North,1,5.0,5.0,66,0.00,,,0.00,Wunderground v.1.15,2013-04-16 11:58:00,
2013-04-17 01:03:00,43.7,33.5,29.96,NNW,340,5.0,5.0,67,0.00,,,0.00,Wunderground v.1.15,2013-04-16 12:03:00,
2013-04-17 01:13:00,43.7,33.1,29.97,WNW,295,4.0,5.0,66,0.00,,,0.00,Wunderground v.1.15,2013-04-16 12:13:00,
2013-04-17 01:18:00,43.7,33.1,29.97,NNE,26,4.0,4.0,66,0.00,,,0.00,Wunderground v.1.15,2013-04-16 12:18:00,
2013-04-17 01:28:00,43.6,33.4,29.97,NW,323,4.0,4.0,67,0.00,,,0.00,Wunderground v.1.15,2013-04-16 12:28:00,
2013-04-17 01:33:00,43.5,33.3,29.98,NW,315,4.0,4.0,67,0.00,,,0.00,Wunderground v.1.15,2013-04-16 12:33:00,
2013-04-17 01:38:00,43.3,33.1,29.98,NW,311,3.0,4.0,67,0.00,,,0.00,Wunderground v.1.15,2013-04-16 12:38:00,
2013-04-17 01:48:00,43.2,33.3,29.98,NNW,332,3.0,5.0,68,0.00,,,0.00,Wunderground v.1.15,2013-04-16 12:48:00,
2013-04-17 01:58:00,43.1,33.3,29.99,NW,316,3.0,3.0,68,0.00,,,0.00,Wunderground v.1.15,2013-04-16 12:58:00,
2013-04-17 02:03:00,42.9,33.1,29.99,NW,312,3.0,3.0,68,0.00,,,0.00,Wunderground v.1.15,2013-04-16 13:03:00,
2013-04-17 02:13:00,42.7,33.2,29.99,NW,305,3.0,5.0,69,0.00,,,0.00,Wunderground v.1.15,2013-04-16 13:13:00,
2013-04-17 02:23:00,42.8,33.0,30.00,NW,314,3.0,3.0,68,0.00,,,0.00,Wunderground v.1.15,2013-04-16 13:23:00,
2013-04-17 02:33:00,42.9,32.7,30.00,WNW,291,3.0,4.0,67,0.00,,,0.00,Wunderground v.1.15,2013-04-16 13:33:00,
2013-04-17 02:43:00,43.1,32.9,30.00,WNW,300,5.0,6.0,67,0.00,,,0.00,Wunderground v.1.15,2013-04-16 13:43:00,
2013-04-17 02:53:00,43.6,33.0,30.01,NNW,328,5.0,5.0,66,0.00,,,0.00,Wunderground v.1.15,2013-04-16 13:53:00,
2013-04-17 03:03:00,44.0,33.4,30.01,NW,312,3.0,5.0,66,0.00,,,0.00,Wunderground v.1.15,2013-04-16 14:03:00,
2013-04-17 03:13:00,44.4,33.4,30.02,WNW,298,4.0,6.0,65,0.00,,,0.00,Wunderground v.1.15,2013-04-16 14:13:00,
2013-04-17 03:23:00,44.9,33.5,30.02,North,1,5.0,7.0,64,0.00,,,0.00,Wunderground v.1.15,2013-04-16 14:23:00,
2013-04-17 03:33:00,45.5,33.2,30.02,NNW,330,5.0,6.0,62,0.00,,,0.00,Wunderground v.1.15,2013-04-16 14:33:00,
2013-04-17 03:38:00,45.9,33.6,30.02,NW,318,5.0,5.0,62,0.00,,,0.00,Wunderground v.1.15,2013-04-16 14:38:00,
2013-04-17 03:43:00,46.1,33.4,30.02,NNW,328,6.0,6.0,61,0.00,,,0.00,Wunderground v.1.15,2013-04-16 14:43:00,
2013-04-17 03:48:00,46.5,33.8,30.02,WNW,285,6.0,6.0,61,0.00,,,0.00,Wunderground v.1.15,2013-04-16 14:48:00,
2013-04-17 03:58:00,47.1,33.9,30.03,NW,321,7.0,7.0,60,0.00,,,0.00,Wunderground v.1.15,2013-04-16 14:58:00,
2013-04-17 04:03:00,47.3,33.7,30.03,NW,313,8.0,8.0,59,0.00,,,0.00,Wunderground v.1.15,2013-04-16 15:03:00,
2013-04-17 04:13:00,47.8,34.2,30.03,NNW,347,9.0,13.0,59,0.00,,,0.00,Wunderground v.1.15,2013-04-16 15:13:00,
2013-04-17 04:28:00,48.8,34.2,30.03,NW,316,9.0,9.0,57,0.00,,,0.00,Wunderground v.1.15,2013-04-16 15:28:00,
2013-04-17 04:33:00,49.1,34.5,30.03,WNW,299,8.0,9.0,57,0.00,,,0.00,Wunderground v.1.15,2013-04-16 15:33:00,
2013-04-17 04:38:00,49.5,34.4,30.04,WNW,290,8.0,14.0,56,0.00,,,0.00,Wunderground v.1.15,2013-04-16 15:38:00,
2013-04-17 04:48:00,50.1,34.5,30.04,NW,310,9.0,12.0,55,0.00,,,0.00,Wunderground v.1.15,2013-04-16 15:48:00,
2013-04-17 04:53:00,50.6,35.0,30.03,NNW,332,8.0,12.0,55,0.00,,,0.00,Wunderground v.1.15,2013-04-16 15:53:00,
2013-04-17 05:03:00,51.4,33.9,30.04,NW,322,8.0,9.0,51,0.00,,,0.00,Wunderground v.1.15,2013-04-16 16:03:00,
2013-04-17 05:13:00,52.2,34.1,30.04,North,349,9.0,14.0,50,0.00,,,0.00,Wunderground v.1.15,2013-04-16 16:13:00,
2013-04-17 05:23:00,53.2,35.0,30.03,NW,316,9.0,11.0,50,0.00,,,0.00,Wunderground v.1.15,2013-04-16 16:23:00,
2013-04-17 05:38:00,54.6,34.2,30.04,NW,309,9.0,9.0,46,0.00,,,0.00,Wunderground v.1.15,2013-04-16 16:38:00,
2013-04-17 05:47:00,55.0,33.5,30.04,NNW,347,11.0,11.0,44,0.00,,,0.00,Wunderground v.1.15,2013-04-16 16:47:00,
2013-04-17 05:53:00,55.5,32.8,30.04,WNW,301,11.0,11.0,42,0.00,,,0.00,Wunderground v.1.15,2013-04-16 16:53:00,
2013-04-17 06:03:00,56.2,32.2,30.04,West,271,11.0,12.0,40,0.00,,,0.00,Wunderground v.1.15,2013-04-16 17:03:00,
2013-04-17 06:13:00,56.5,33.7,30.04,WNW,285,11.0,14.0,42,0.00,,,0.00,Wunderground v.1.15,2013-04-16 17:13:00,
2013-04-17 06:23:00,57.1,33.6,30.04,West,277,11.0,12.0,41,0.00,,,0.00,Wunderground v.1.15,2013-04-16 17:23:00,
2013-04-17 06:28:00,57.5,33.3,30.04,WNW,296,11.0,11.0,40,0.00,,,0.00,Wunderground v.1.15,2013-04-16 17:28:00,
2013-04-17 06:38:00,58.2,33.3,30.04,WNW,287,10.0,10.0,39,0.00,,,0.00,Wunderground v.1.15,2013-04-16 17:38:00,
2013-04-17 06:48:00,58.3,30.0,30.04,NNW,339,12.0,12.0,34,0.00,,,0.00,Wunderground v.1.15,2013-04-16 17:48:00,
2013-04-17 06:53:00,58.6,30.3,30.05,WNW,302,12.0,12.0,34,0.00,,,0.00,Wunderground v.1.15,2013-04-16 17:53:00,
2013-04-17 07:03:00,59.3,30.9,30.04,NW,311,11.0,13.0,34,0.00,,,0.00,Wunderground v.1.15,2013-04-16 18:03:00,
2013-04-17 07:13:00,59.3,27.8,30.05,WNW,300,11.0,11.0,30,0.00,,,0.00,Wunderground v.1.15,2013-04-16 18:13:00,
2013-04-17 07:18:00,59.2,28.5,30.05,WNW,285,12.0,12.0,31,0.00,,,0.00,Wunderground v.1.15,2013-04-16 18:18:00,
2013-04-17 07:23:00,59.4,29.5,30.05,WNW,291,11.0,16.0,32,0.00,,,0.00,Wunderground v.1.15,2013-04-16 18:23:00,
2013-04-17 07:33:00,59.9,29.9,30.05,NW,311,10.0,15.0,32,0.00,,,0.00,Wunderground v.1.15,2013-04-16 18:33:00,
2013-04-17 07:43:00,60.5,29.7,30.05,NW,325,11.0,12.0,31,0.00,,,0.00,Wunderground v.1.15,2013-04-16 18:43:00,
2013-04-17 07:48:00,60.3,28.7,30.04,North,354,10.0,10.0,30,0.00,,,0.00,Wunderground v.1.15,2013-04-16 18:48:00,
2013-04-17 07:58:00,60.8,29.1,30.05,West,273,10.0,14.0,30,0.00,,,0.00,Wunderground v.1.15,2013-04-16 18:58:00,
2013-04-17 08:03:00,60.9,30.0,30.04,NW,324,11.0,14.0,31,0.00,,,0.00,Wunderground v.1.15,2013-04-16 19:03:00,
2013-04-17 08:13:00,61.4,30.5,30.04,North,358,11.0,11.0,31,0.00,,,0.00,Wunderground v.1.15,2013-04-16 19:13:00,
2013-04-17 08:18:00,61.3,27.9,30.04,WNW,290,11.0,12.0,28,0.00,,,0.00,Wunderground v.1.15,2013-04-16 19:18:00,
2013-04-17 08:28:00,61.8,28.3,30.04,WNW,301,11.0,13.0,28,0.00,,,0.00,Wunderground v.1.15,2013-04-16 19:28:00,
2013-04-17 08:33:00,61.7,29.1,30.04,WNW,296,12.0,20.0,29,0.00,,,0.00,Wunderground v.1.15,2013-04-16 19:33:00,
2013-04-17 08:43:00,61.8,29.2,30.03,WNW,291,12.0,13.0,29,0.00,,,0.00,Wunderground v.1.15,2013-04-16 19:43:00,
2013-04-17 08:53:00,62.1,29.4,30.03,WNW,288,11.0,14.0,29,0.00,,,0.00,Wunderground v.1.15,2013-04-16 19:53:00,
2013-04-17 08:58:00,62.5,29.8,30.03,West,279,12.0,12.0,29,0.00,,,0.00,Wunderground v.1.15,2013-04-16 19:58:00,
2013-04-17 09:03:00,62.5,28.9,30.03,WNW,300,12.0,12.0,28,0.00,,,0.00,Wunderground v.1.15,2013-04-16 20:03:00,
2013-04-17 09:13:00,62.5,28.9,30.03,WNW,302,12.0,14.0,28,0.00,,,0.00,Wunderground v.1.15,2013-04-16 20:13:00,
2013-04-17 09:23:00,63.3,29.6,30.03,WNW,288,11.0,13.0,28,0.00,,,0.00,Wunderground v.1.15,2013-04-16 20:23:00,
2013-04-17 09:28:00,63.2,29.5,30.03,WNW,292,11.0,14.0,28,0.00,,,0.00,Wunderground v.1.15,2013-04-16 20:28:00,
2013-04-17 09:33:00,63.5,29.8,30.03,NW,316,11.0,14.0,28,0.00,,,0.00,Wunderground v.1.15,2013-04-16 20:33:00,
2013-04-17 09:43:00,63.8,27.3,30.03,NW,311,10.0,13.0,25,0.00,,,0.00,Wunderground v.1.15,2013-04-16 20:43:00,
2013-04-17 09:53:00,64.2,28.6,30.03,WNW,300,12.0,14.0,26,0.00,,,0.00,Wunderground v.1.15,2013-04-16 20:53:00,
2013-04-17 09:58:00,64.1,29.4,30.02,WNW,296,11.0,11.0,27,0.00,,,0.00,Wunderground v.1.15,2013-04-16 20:58:00,
2013-04-17 10:03:00,64.5,30.6,30.02,NW,324,11.0,11.0,28,0.00,,,0.00,Wunderground v.1.15,2013-04-16 21:03:00,
2013-04-17 10:13:00,65.2,29.4,30.02,West,279,9.0,14.0,26,0.00,,,0.00,Wunderground v.1.15,2013-04-16 21:13:00,
2013-04-17 10:23:00,64.9,29.2,30.03,WNW,300,12.0,18.0,26,0.00,,,0.00,Wunderground v.1.15,2013-04-16 21:23:00,
2013-04-17 10:28:00,64.7,29.0,30.02,NW,311,12.0,12.0,26,0.00,,,0.00,Wunderground v.1.15,2013-04-16 21:28:00,
2013-04-17 10:33:00,65.2,27.5,30.02,NW,326,11.0,12.0,24,0.00,,,0.00,Wunderground v.1.15,2013-04-16 21:33:00,
2013-04-17 10:43:00,65.6,29.8,30.03,NW,324,10.0,11.0,26,0.00,,,0.00,Wunderground v.1.15,2013-04-16 21:43:00,
2013-04-17 10:48:00,65.4,28.6,30.02,North,352,10.0,10.0,25,0.00,,,0.00,Wunderground v.1.15,2013-04-16 21:48:00,
2013-04-17 10:58:00,66.1,28.2,30.02,WNW,300,10.0,16.0,24,0.00,,,0.00,Wunderground v.1.15,2013-04-16 21:58:00,
2013-04-17 11:03:00,66.0,26.0,30.02,West,259,11.0,16.0,22,0.00,,,0.00,Wunderground v.1.15,2013-04-16 22:03:00,
2013-04-17 11:13:00,65.7,27.9,30.02,West,278,11.0,13.0,24,0.00,,,0.00,Wunderground v.1.15,2013-04-16 22:13:00,
2013-04-17 11:18:00,65.7,27.9,30.02,NNE,29,12.0,12.0,24,0.00,,,0.00,Wunderground v.1.15,2013-04-16 22:18:00,
2013-04-17 11:28:00,66.2,26.2,30.02,North,359,11.0,11.0,22,0.00,,,0.00,Wunderground v.1.15,2013-04-16 22:28:00,
2013-04-17 11:33:00,66.3,26.3,30.02,NW,309,10.0,17.0,22,0.00,,,0.00,Wunderground v.1.15,2013-04-16 22:33:00,
2013-04-17 11:43:00,66.0,26.0,30.01,WNW,291,11.0,16.0,22,0.00,,,0.00,Wunderground v.1.15,2013-04-16 22:43:00,
2013-04-17 11:53:00,66.3,25.2,30.02,NNW,328,11.0,13.0,21,0.00,,,0.00,Wunderground v.1.15,2013-04-16 22:53:00,
2013-04-17 11:58:00,66.4,26.4,30.01,NW,320,10.0,10.0,22,0.00,,,0.00,Wunderground v.1.15,2013-04-16 22:58:00,
2013-04-17 12:03:00,66.6,26.5,30.01,WNW,287,9.0,10.0,22,0.00,,,0.00,Wunderground v.1.15,2013-04-16 23:03:00,
2013-04-17 12:13:00,67.0,25.7,30.01,NNW,330,9.0,9.0,21,0.00,,,0.00,Wunderground v.1.15,2013-04-16 23:13:00,
2013-04-17 12:23:00,67.0,25.7,30.01,North,1,8.0,9.0,21,0.00,,,0.00,Wunderground v.1.15,2013-04-16 23:23:00,
2013-04-17 12:33:00,66.9,24.5,30.01,NW,315,10.0,10.0,20,0.00,,,0.00,Wunderground v.1.15,2013-04-16 23:33:00,
2013-04-17 12:38:00,66.8,24.4,30.01,West,281,10.0,10.0,20,0.00,,,0.00,Wunderground v.1.15,2013-04-16 23:38:00,
2013-04-17 12:48:00,66.9,23.3,30.01,NNW,336,10.0,10.0,19,0.00,,,0.00,Wunderground v.1.15,2013-04-16 23:48:00,
2013-04-17 12:53:00,67.0,24.6,30.01,WNW,298,8.0,10.0,20,0.00,,,0.00,Wunderground v.1.15,2013-04-16 23:53:00,
2013-04-17 13:03:00,67.2,25.9,30.01,WNW,288,9.0,9.0,21,0.00,,,0.00,Wunderground v.1.15,2013-04-17 00:03:00,
2013-04-17 13:13:00,66.9,24.5,30.01,NW,321,10.0,12.0,20,0.00,,,0.00,Wunderground v.1.15,2013-04-17 00:13:00,
2013-04-17 13:23:00,65.7,24.7,30.02,NNE,13,8.0,9.0,21,0.00,,,0.00,Wunderground v.1.15,2013-04-17 00:23:00,
2013-04-17 13:33:00,65.0,25.2,30.02,NNW,338,8.0,8.0,22,0.00,,,0.00,Wunderground v.1.15,2013-04-17 00:33:00,
2013-04-17 13:43:00,64.6,25.9,30.02,NW,312,6.0,6.0,23,0.00,,,0.00,Wunderground v.1.15,2013-04-17 00:43:00,
2013-04-17 13:53:00,63.9,26.4,30.03,NNE,19,9.0,16.0,24,0.00,,,0.00,Wunderground v.1.15,2013-04-17 00:53:00,
2013-04-17 13:58:00,63.3,25.9,30.03,NNE,26,13.0,20.0,24,0.00,,,0.00,Wunderground v.1.15,2013-04-17 00:58:00,
2013-04-17 14:08:00,63.2,25.8,30.03,NE,37,10.0,12.0,24,0.00,,,0.00,Wunderground v.1.15,2013-04-17 01:08:00,
2013-04-17 14:13:00,63.6,26.1,30.03,NE,38,8.0,12.0,24,0.00,,,0.00,Wunderground v.1.15,2013-04-17 01:13:00,
2013-04-17 14:23:00,64.0,26.4,30.03,NNW,342,7.0,8.0,24,0.00,,,0.00,Wunderground v.1.15,2013-04-17 01:23:00,
2013-04-17 14:33:00,63.9,25.3,30.03,North,4,7.0,8.0,23,0.00,,,0.00,Wunderground v.1.15,2013-04-17 01:33:00,
2013-04-17 14:43:00,63.8,26.3,30.04,NW,314,6.0,7.0,24,0.00,,,0.00,Wunderground v.1.15,2013-04-17 01:43:00,
2013-04-17 14:48:00,64.1,26.5,30.04,NNE,13,5.0,7.0,24,0.00,,,0.00,Wunderground v.1.15,2013-04-17 01:48:00,
2013-04-17 14:58:00,63.7,27.2,30.04,NNE,22,6.0,6.0,25,0.00,,,0.00,Wunderground v.1.15,2013-04-17 01:58:00,
2013-04-17 15:03:00,63.6,28.1,30.05,NW,313,6.0,6.0,26,0.00,,,0.00,Wunderground v.1.15,2013-04-17 02:03:00,
2013-04-17 15:13:00,63.2,26.8,30.05,NW,326,5.0,7.0,25,0.00,,,0.00,Wunderground v.1.15,2013-04-17 02:13:00,
2013-04-17 15:23:00,62.9,28.4,30.05,NW,312,4.0,4.0,27,0.00,,,0.00,Wunderground v.1.15,2013-04-17 02:23:00,
2013-04-17 15:33:00,62.1,28.6,30.05,NW,326,4.0,5.0,28,0.00,,,0.00,Wunderground v.1.15,2013-04-17 02:33:00,
2013-04-17 15:43:00,61.0,28.5,30.06,North,360,4.0,4.0,29,0.00,,,0.00,Wunderground v.1.15,2013-04-17 02:43:00,
2013-04-17 15:53:00,60.3,27.9,30.06,NNW,345,4.0,9.0,29,0.00,,,0.00,Wunderground v.1.15,2013-04-17 02:53:00,
2013-04-17 16:03:00,59.5,28.0,30.06,NNW,333,2.0,3.0,30,0.00,,,0.00,Wunderground v.1.15,2013-04-17 03:03:00,
2013-04-17 16:13:00,58.7,28.1,30.07,NNW,332,1.0,2.0,31,0.00,,,0.00,Wunderground v.1.15,2013-04-17 03:13:00,
2013-04-17 16:18:00,58.4,27.9,30.07,NNW,336,2.0,2.0,31,0.00,,,0.00,Wunderground v.1.15,2013-04-17 03:18:00,
2013-04-17 16:28:00,58.0,28.3,30.08,NW,314,3.0,3.0,32,0.00,,,0.00,Wunderground v.1.15,2013-04-17 03:28:00,
2013-04-17 16:33:00,57.8,28.9,30.08,NNW,332,3.0,3.0,33,0.00,,,0.00,Wunderground v.1.15,2013-04-17 03:33:00,
2013-04-17 16:43:00,57.3,29.1,30.09,WNW,292,3.0,3.0,34,0.00,,,0.00,Wunderground v.1.15,2013-04-17 03:43:00,
2013-04-17 16:48:00,57.0,29.6,30.09,NW,316,3.0,3.0,35,0.00,,,0.00,Wunderground v.1.15,2013-04-17 03:48:00,
2013-04-17 16:53:00,56.7,30.0,30.09,North,354,3.0,4.0,36,0.00,,,0.00,Wunderground v.1.15,2013-04-17 03:53:00,
2013-04-17 17:03:00,56.0,30.7,30.10,NW,312,3.0,3.0,38,0.00,,,0.00,Wunderground v.1.15,2013-04-17 04:03:00,
2013-04-17 17:08:00,55.6,31.0,30.10,NW,311,4.0,4.0,39,0.00,,,0.00,Wunderground v.1.15,2013-04-17 04:08:00,
2013-04-17 17:13:00,55.3,30.7,30.10,NW,307,3.0,6.0,39,0.00,,,0.00,Wunderground v.1.15,2013-04-17 04:13:00,
2013-04-17 17:23:00,54.7,31.4,30.11,North,8,4.0,5.0,41,0.00,,,0.00,Wunderground v.1.15,2013-04-17 04:23:00,
2013-04-17 17:33:00,54.5,31.3,30.11,North,353,4.0,4.0,41,0.00,,,0.00,Wunderground v.1.15,2013-04-17 04:33:00,
2013-04-17 17:38:00,54.5,31.3,30.11,NNW,340,5.0,5.0,41,0.00,,,0.00,Wunderground v.1.15,2013-04-17 04:38:00,
2013-04-17 17:43:00,54.5,31.3,30.12,NW,313,5.0,5.0,41,0.00,,,0.00,Wunderground v.1.15,2013-04-17 04:43:00,
2013-04-17 17:48:00,54.5,31.3,30.12,NNW,336,5.0,5.0,41,0.00,,,0.00,Wunderground v.1.15,2013-04-17 04:48:00,
2013-04-17 17:53:00,54.4,31.2,30.12,NW,316,5.0,5.0,41,0.00,,,0.00,Wunderground v.1.15,2013-04-17 04:53:00,
2013-04-17 18:03:00,54.0,31.4,30.12,NNW,332,5.0,5.0,42,0.00,,,0.00,Wunderground v.1.15,2013-04-17 05:03:00,
2013-04-17 18:13:00,53.8,30.6,30.13,NW,324,5.0,6.0,41,0.00,,,0.00,Wunderground v.1.15,2013-04-17 05:13:00,
2013-04-17 18:23:00,53.7,30.5,30.13,NNW,333,5.0,6.0,41,0.00,,,0.00,Wunderground v.1.15,2013-04-17 05:23:00,
2013-04-17 18:28:00,53.8,30.0,30.13,NNW,332,6.0,7.0,40,0.00,,,0.00,Wunderground v.1.15,2013-04-17 05:28:00,
2013-04-17 18:33:00,53.8,29.4,30.13,NW,313,7.0,10.0,39,0.00,,,0.00,Wunderground v.1.15,2013-04-17 05:33:00,
2013-04-17 18:43:00,53.7,29.3,30.13,NNW,328,6.0,7.0,39,0.00,,,0.00,Wunderground v.1.15,2013-04-17 05:43:00,
2013-04-17 18:53:00,53.1,30.0,30.14,NW,311,5.0,6.0,41,0.00,,,0.00,Wunderground v.1.15,2013-04-17 05:53:00,
2013-04-17 18:58:00,52.6,30.1,30.14,NNE,18,4.0,4.0,42,0.00,,,0.00,Wunderground v.1.15,2013-04-17 05:58:00,
2013-04-17 19:03:00,52.2,29.8,30.14,NNE,16,4.0,5.0,42,0.00,,,0.00,Wunderground v.1.15,2013-04-17 06:03:00,
2013-04-17 19:13:00,51.7,30.5,30.14,NE,37,4.0,4.0,44,0.00,,,0.00,Wunderground v.1.15,2013-04-17 06:13:00,
2013-04-17 19:23:00,51.6,29.8,30.14,NW,317,4.0,5.0,43,0.00,,,0.00,Wunderground v.1.15,2013-04-17 06:23:00,
2013-04-17 19:33:00,51.5,29.1,30.14,NNW,342,3.0,4.0,42,0.00,,,0.00,Wunderground v.1.15,2013-04-17 06:33:00,
2013-04-17 19:43:00,51.5,29.1,30.14,NNW,332,4.0,4.0,42,0.00,,,0.00,Wunderground v.1.15,2013-04-17 06:43:00,
2013-04-17 19:53:00,51.9,28.9,30.15,NW,304,4.0,5.0,41,0.00,,,0.00,Wunderground v.1.15,2013-04-17 06:53:00,
2013-04-17 20:03:00,52.0,28.4,30.15,NNE,32,4.0,6.0,40,0.00,,,0.00,Wunderground v.1.15,2013-04-17 07:03:00,
2013-04-17 20:13:00,51.8,28.8,30.15,NW,323,4.0,7.0,41,0.00,,,0.00,Wunderground v.1.15,2013-04-17 07:13:00,
2013-04-17 20:18:00,51.6,29.2,30.15,NNW,333,4.0,4.0,42,0.00,,,0.00,Wunderground v.1.15,2013-04-17 07:18:00,
2013-04-17 20:28:00,50.8,29.1,30.15,NNW,329,3.0,4.0,43,0.00,,,0.00,Wunderground v.1.15,2013-04-17 07:28:00,
2013-04-17 20:33:00,50.6,29.5,30.16,North,359,3.0,4.0,44,0.00,,,0.00,Wunderground v.1.15,2013-04-17 07:33:00,
2013-04-17 20:43:00,49.8,29.8,30.16,NW,323,2.0,3.0,46,0.00,,,0.00,Wunderground v.1.15,2013-04-17 07:43:00,
2013-04-17 20:48:00,49.1,30.2,30.16,WNW,294,2.0,2.0,48,0.00,,,0.00,Wunderground v.1.15,2013-04-17 07:48:00,
2013-04-17 20:58:00,47.3,31.0,30.17,WNW,295,3.0,5.0,53,0.00,,,0.00,Wunderground v.1.15,2013-04-17 07:58:00,
2013-04-17 21:03:00,46.7,30.9,30.17,NW,304,3.0,5.0,54,0.00,,,0.00,Wunderground v.1.15,2013-04-17 08:03:00,
2013-04-17 21:13:00,45.9,31.1,30.17,WNW,295,4.0,4.0,56,0.00,,,0.00,Wunderground v.1.15,2013-04-17 08:13:00,
2013-04-17 21:18:00,45.7,31.3,30.17,NW,322,4.0,5.0,57,0.00,,,0.00,Wunderground v.1.15,2013-04-17 08:18:00,
2013-04-17 21:23:00,45.7,31.3,30.17,WNW,298,4.0,5.0,57,0.00,,,0.00,Wunderground v.1.15,2013-04-17 08:23:00,
2013-04-17 21:33:00,45.7,31.3,30.17,WNW,298,3.0,4.0,57,0.00,,,0.00,Wunderground v.1.15,2013-04-17 08:33:00,
2013-04-17 21:38:00,45.9,31.5,30.17,NNW,328,4.0,6.0,57,0.00,,,0.00,Wunderground v.1.15,2013-04-17 08:38:00,
2013-04-17 21:43:00,45.8,31.4,30.17,NW,319,4.0,6.0,57,0.00,,,0.00,Wunderground v.1.15,2013-04-17 08:43:00,
2013-04-17 21:53:00,45.6,31.7,30.18,North,5,5.0,6.0,58,0.00,,,0.00,Wunderground v.1.15,2013-04-17 08:53:00,
2013-04-17 21:58:00,45.3,31.8,30.18,NW,326,5.0,7.0,59,0.00,,,0.00,Wunderground v.1.15,2013-04-17 08:58:00,
2013-04-17 22:03:00,45.1,32.0,30.17,NNW,341,5.0,7.0,60,0.00,,,0.00,Wunderground v.1.15,2013-04-17 09:03:00,
2013-04-17 22:13:00,44.7,32.1,30.17,NW,316,5.0,11.0,61,0.00,,,0.00,Wunderground v.1.15,2013-04-17 09:13:00,
2013-04-17 22:18:00,44.5,32.3,30.17,NW,318,5.0,9.0,62,0.00,,,0.00,Wunderground v.1.15,2013-04-17 09:18:00,
2013-04-17 22:28:00,44.5,32.3,30.17,WNW,300,5.0,7.0,62,0.00,,,0.00,Wunderground v.1.15,2013-04-17 09:28:00,
2013-04-17 22:33:00,44.5,32.7,30.17,NW,326,5.0,12.0,63,0.00,,,0.00,Wunderground v.1.15,2013-04-17 09:33:00,
2013-04-17 22:43:00,44.5,32.7,30.17,NW,312,6.0,7.0,63,0.00,,,0.00,Wunderground v.1.15,2013-04-17 09:43:00,
2013-04-17 22:48:00,44.7,32.9,30.17,North,6,6.0,6.0,63,0.00,,,0.00,Wunderground v.1.15,2013-04-17 09:48:00,
2013-04-17 22:58:00,45.2,32.9,30.17,NW,311,6.0,6.0,62,0.00,,,0.00,Wunderground v.1.15,2013-04-17 09:58:00,
2013-04-17 23:03:00,45.2,32.9,30.17,NW,316,7.0,7.0,62,0.00,,,0.00,Wunderground v.1.15,2013-04-17 10:03:00,
2013-04-17 23:13:00,45.5,32.8,30.17,NW,306,8.0,8.0,61,0.00,,,0.00,Wunderground v.1.15,2013-04-17 10:13:00,
2013-04-17 23:23:00,45.6,32.9,30.17,NW,323,6.0,11.0,61,0.00,,,0.00,Wunderground v.1.15,2013-04-17 10:23:00,
2013-04-17 23:33:00,45.6,32.9,30.17,NNW,339,6.0,6.0,61,0.00,,,0.00,Wunderground v.1.15,2013-04-17 10:33:00,
2013-04-17 23:38:00,45.5,32.8,30.18,WNW,293,6.0,6.0,61,0.00,,,0.00,Wunderground v.1.15,2013-04-17 10:38:00,
2013-04-17 23:48:00,45.0,32.8,30.18,WNW,300,6.0,6.0,62,0.00,,,0.00,Wunderground v.1.15,2013-04-17 10:48:00,
2013-04-17 23:53:00,44.8,33.0,30.18,NW,323,7.0,7.0,63,0.00,,,0.00,Wunderground v.1.15,2013-04-17 10:53:00,